sensor_id;sensor_type;location;lat;lon;timestamp;P1;durP1;ratioP1;P2;durP2;ratioP2
35969;SDS011;22448;51.298;6.430;2023-05-14T00:02:08;23.15;;;20.70;;
35969;SDS011;22448;51.298;6.430;2023-05-14T00:04:35;20.50;;;18.30;;
35969;SDS011;22448;51.298;6.430;2023-05-14T00:07:02;22.85;;;19.77;;
35969;SDS011;22448;51.298;6.430;2023-05-14T00:09:29;25.13;;;21.10;;
35969;SDS011;22448;51.298;6.430;2023-05-14T00:11:57;25.20;;;21.88;;
35969;SDS011;22448;51.298;6.430;2023-05-14T00:14:24;28.23;;;21.92;;
35969;SDS011;22448;51.298;6.430;2023-05-14T00:16:51;23.67;;;21.20;;
35969;SDS011;22448;51.298;6.430;2023-05-14T00:19:18;26.08;;;21.98;;
35969;SDS011;22448;51.298;6.430;2023-05-14T00:21:46;28.38;;;21.25;;
35969;SDS011;22448;51.298;6.430;2023-05-14T00:24:13;26.65;;;22.33;;
35969;SDS011;22448;51.298;6.430;2023-05-14T00:26:40;24.73;;;22.02;;
35969;SDS011;22448;51.298;6.430;2023-05-14T00:29:07;24.88;;;20.85;;
35969;SDS011;22448;51.298;6.430;2023-05-14T00:31:35;23.42;;;19.65;;
35969;SDS011;22448;51.298;6.430;2023-05-14T00:34:02;23.63;;;19.63;;
35969;SDS011;22448;51.298;6.430;2023-05-14T00:36:30;22.45;;;19.58;;
35969;SDS011;22448;51.298;6.430;2023-05-14T00:38:57;22.77;;;18.73;;
35969;SDS011;22448;51.298;6.430;2023-05-14T00:41:24;21.40;;;18.52;;
35969;SDS011;22448;51.298;6.430;2023-05-14T00:43:51;22.20;;;19.52;;
35969;SDS011;22448;51.298;6.430;2023-05-14T00:46:18;22.33;;;19.92;;
35969;SDS011;22448;51.298;6.430;2023-05-14T00:48:46;22.00;;;19.27;;
35969;SDS011;22448;51.298;6.430;2023-05-14T00:51:13;24.52;;;21.23;;
35969;SDS011;22448;51.298;6.430;2023-05-14T00:53:41;22.83;;;20.13;;
35969;SDS011;22448;51.298;6.430;2023-05-14T00:56:08;25.15;;;19.73;;
35969;SDS011;22448;51.298;6.430;2023-05-14T00:58:36;25.45;;;22.52;;
35969;SDS011;22448;51.298;6.430;2023-05-14T01:01:03;25.50;;;22.67;;
35969;SDS011;22448;51.298;6.430;2023-05-14T01:03:30;27.00;;;22.33;;
35969;SDS011;22448;51.298;6.430;2023-05-14T01:06:02;30.10;;;26.80;;
35969;SDS011;22448;51.298;6.430;2023-05-14T01:08:35;32.33;;;27.42;;
35969;SDS011;22448;51.298;6.430;2023-05-14T01:14:08;32.95;;;26.98;;
35969;SDS011;22448;51.298;6.430;2023-05-14T01:16:47;43.08;;;29.98;;
35969;SDS011;22448;51.298;6.430;2023-05-14T01:19:20;35.85;;;30.02;;
35969;SDS011;22448;51.298;6.430;2023-05-14T01:22:01;42.83;;;28.25;;
35969;SDS011;22448;51.298;6.430;2023-05-14T01:24:28;33.40;;;28.33;;
35969;SDS011;22448;51.298;6.430;2023-05-14T01:26:56;33.58;;;27.08;;
35969;SDS011;22448;51.298;6.430;2023-05-14T01:29:50;32.25;;;27.23;;
35969;SDS011;22448;51.298;6.430;2023-05-14T01:32:37;30.38;;;26.90;;
35969;SDS011;22448;51.298;6.430;2023-05-14T01:35:06;32.20;;;26.83;;
35969;SDS011;22448;51.298;6.430;2023-05-14T01:37:35;35.83;;;27.98;;
35969;SDS011;22448;51.298;6.430;2023-05-14T01:40:03;36.65;;;26.75;;
35969;SDS011;22448;51.298;6.430;2023-05-14T01:42:31;32.25;;;27.48;;
35969;SDS011;22448;51.298;6.430;2023-05-14T01:44:58;30.75;;;26.55;;
35969;SDS011;22448;51.298;6.430;2023-05-14T01:47:26;35.92;;;26.48;;
35969;SDS011;22448;51.298;6.430;2023-05-14T01:49:53;31.20;;;26.98;;
35969;SDS011;22448;51.298;6.430;2023-05-14T01:52:20;35.05;;;27.17;;
35969;SDS011;22448;51.298;6.430;2023-05-14T01:54:47;30.10;;;26.90;;
35969;SDS011;22448;51.298;6.430;2023-05-14T01:57:14;33.38;;;27.27;;
35969;SDS011;22448;51.298;6.430;2023-05-14T01:59:41;33.40;;;27.10;;
35969;SDS011;22448;51.298;6.430;2023-05-14T02:02:08;31.30;;;26.27;;
35969;SDS011;22448;51.298;6.430;2023-05-14T02:04:35;31.63;;;27.52;;
35969;SDS011;22448;51.298;6.430;2023-05-14T02:07:02;29.63;;;25.80;;
35969;SDS011;22448;51.298;6.430;2023-05-14T02:09:29;28.75;;;25.15;;
35969;SDS011;22448;51.298;6.430;2023-05-14T02:11:56;34.35;;;25.45;;
35969;SDS011;22448;51.298;6.430;2023-05-14T02:14:23;35.45;;;26.58;;
35969;SDS011;22448;51.298;6.430;2023-05-14T02:16:51;34.83;;;24.92;;
35969;SDS011;22448;51.298;6.430;2023-05-14T02:19:18;36.38;;;26.80;;
35969;SDS011;22448;51.298;6.430;2023-05-14T02:21:45;32.38;;;26.45;;
35969;SDS011;22448;51.298;6.430;2023-05-14T02:24:12;33.95;;;26.25;;
35969;SDS011;22448;51.298;6.430;2023-05-14T02:26:39;34.60;;;27.02;;
35969;SDS011;22448;51.298;6.430;2023-05-14T02:29:06;30.67;;;27.38;;
35969;SDS011;22448;51.298;6.430;2023-05-14T02:31:33;31.58;;;26.48;;
35969;SDS011;22448;51.298;6.430;2023-05-14T02:34:03;34.35;;;28.02;;
35969;SDS011;22448;51.298;6.430;2023-05-14T02:36:32;34.60;;;26.33;;
35969;SDS011;22448;51.298;6.430;2023-05-14T02:38:59;31.83;;;25.77;;
35969;SDS011;22448;51.298;6.430;2023-05-14T02:41:30;36.67;;;26.27;;
35969;SDS011;22448;51.298;6.430;2023-05-14T02:43:57;35.15;;;27.60;;
35969;SDS011;22448;51.298;6.430;2023-05-14T02:46:23;31.63;;;27.70;;
35969;SDS011;22448;51.298;6.430;2023-05-14T02:48:51;32.35;;;27.15;;
35969;SDS011;22448;51.298;6.430;2023-05-14T02:51:18;32.40;;;26.70;;
35969;SDS011;22448;51.298;6.430;2023-05-14T02:53:46;32.60;;;27.52;;
35969;SDS011;22448;51.298;6.430;2023-05-14T02:56:13;34.53;;;27.92;;
35969;SDS011;22448;51.298;6.430;2023-05-14T02:58:40;36.22;;;29.40;;
35969;SDS011;22448;51.298;6.430;2023-05-14T03:01:07;38.40;;;28.20;;
35969;SDS011;22448;51.298;6.430;2023-05-14T03:03:35;38.38;;;27.90;;
35969;SDS011;22448;51.298;6.430;2023-05-14T03:06:04;34.80;;;28.20;;
35969;SDS011;22448;51.298;6.430;2023-05-14T03:08:31;33.67;;;28.33;;
35969;SDS011;22448;51.298;6.430;2023-05-14T03:10:58;32.50;;;27.90;;
35969;SDS011;22448;51.298;6.430;2023-05-14T03:13:25;33.78;;;27.38;;
35969;SDS011;22448;51.298;6.430;2023-05-14T03:15:52;32.42;;;28.90;;
35969;SDS011;22448;51.298;6.430;2023-05-14T03:18:20;39.75;;;29.30;;
35969;SDS011;22448;51.298;6.430;2023-05-14T03:20:47;37.22;;;29.83;;
35969;SDS011;22448;51.298;6.430;2023-05-14T03:23:14;37.70;;;28.88;;
35969;SDS011;22448;51.298;6.430;2023-05-14T03:25:42;36.35;;;30.45;;
35969;SDS011;22448;51.298;6.430;2023-05-14T03:28:09;35.03;;;29.73;;
35969;SDS011;22448;51.298;6.430;2023-05-14T03:30:35;35.00;;;28.50;;
35969;SDS011;22448;51.298;6.430;2023-05-14T03:33:03;41.63;;;31.83;;
35969;SDS011;22448;51.298;6.430;2023-05-14T03:35:30;36.97;;;30.58;;
35969;SDS011;22448;51.298;6.430;2023-05-14T03:37:57;39.13;;;29.63;;
35969;SDS011;22448;51.298;6.430;2023-05-14T03:40:25;40.58;;;31.83;;
35969;SDS011;22448;51.298;6.430;2023-05-14T03:42:52;43.70;;;32.92;;
35969;SDS011;22448;51.298;6.430;2023-05-14T03:45:19;39.20;;;32.17;;
35969;SDS011;22448;51.298;6.430;2023-05-14T03:47:46;39.13;;;33.47;;
35969;SDS011;22448;51.298;6.430;2023-05-14T03:50:13;41.47;;;32.22;;
35969;SDS011;22448;51.298;6.430;2023-05-14T03:52:40;39.92;;;33.72;;
35969;SDS011;22448;51.298;6.430;2023-05-14T03:55:08;41.95;;;32.40;;
35969;SDS011;22448;51.298;6.430;2023-05-14T03:57:35;40.33;;;31.42;;
35969;SDS011;22448;51.298;6.430;2023-05-14T04:00:05;36.88;;;30.45;;
35969;SDS011;22448;51.298;6.430;2023-05-14T04:02:41;37.80;;;32.05;;
35969;SDS011;22448;51.298;6.430;2023-05-14T04:05:09;41.35;;;32.05;;
35969;SDS011;22448;51.298;6.430;2023-05-14T04:07:36;37.53;;;31.63;;
35969;SDS011;22448;51.298;6.430;2023-05-14T04:10:03;35.90;;;29.92;;
35969;SDS011;22448;51.298;6.430;2023-05-14T04:12:33;38.55;;;30.63;;
35969;SDS011;22448;51.298;6.430;2023-05-14T04:15:01;35.15;;;30.40;;
35969;SDS011;22448;51.298;6.430;2023-05-14T04:17:28;40.58;;;32.22;;
35969;SDS011;22448;51.298;6.430;2023-05-14T04:19:55;41.42;;;33.55;;
35969;SDS011;22448;51.298;6.430;2023-05-14T04:22:22;44.00;;;32.75;;
35969;SDS011;22448;51.298;6.430;2023-05-14T04:24:49;41.33;;;32.55;;
35969;SDS011;22448;51.298;6.430;2023-05-14T04:27:20;39.92;;;33.33;;
35969;SDS011;22448;51.298;6.430;2023-05-14T04:29:50;41.72;;;32.30;;
35969;SDS011;22448;51.298;6.430;2023-05-14T04:32:17;38.08;;;29.88;;
35969;SDS011;22448;51.298;6.430;2023-05-14T04:34:44;35.13;;;29.33;;
35969;SDS011;22448;51.298;6.430;2023-05-14T04:37:12;41.75;;;30.27;;
35969;SDS011;22448;51.298;6.430;2023-05-14T04:39:39;33.45;;;28.13;;
35969;SDS011;22448;51.298;6.430;2023-05-14T04:42:06;38.85;;;30.20;;
35969;SDS011;22448;51.298;6.430;2023-05-14T04:44:34;34.60;;;29.92;;
35969;SDS011;22448;51.298;6.430;2023-05-14T04:47:01;42.58;;;28.42;;
35969;SDS011;22448;51.298;6.430;2023-05-14T04:49:29;29.58;;;25.55;;
35969;SDS011;22448;51.298;6.430;2023-05-14T04:51:56;35.47;;;25.40;;
35969;SDS011;22448;51.298;6.430;2023-05-14T04:54:23;28.17;;;25.13;;
35969;SDS011;22448;51.298;6.430;2023-05-14T04:56:50;27.20;;;23.70;;
35969;SDS011;22448;51.298;6.430;2023-05-14T04:59:17;29.80;;;23.63;;
35969;SDS011;22448;51.298;6.430;2023-05-14T05:01:44;27.00;;;22.38;;
35969;SDS011;22448;51.298;6.430;2023-05-14T05:04:12;26.70;;;23.50;;
35969;SDS011;22448;51.298;6.430;2023-05-14T05:06:39;31.90;;;24.95;;
35969;SDS011;22448;51.298;6.430;2023-05-14T05:09:06;29.42;;;23.15;;
35969;SDS011;22448;51.298;6.430;2023-05-14T05:11:34;31.63;;;24.42;;
35969;SDS011;22448;51.298;6.430;2023-05-14T05:14:01;28.73;;;25.15;;
35969;SDS011;22448;51.298;6.430;2023-05-14T05:16:28;30.55;;;24.95;;
35969;SDS011;22448;51.298;6.430;2023-05-14T05:18:55;24.17;;;21.17;;
35969;SDS011;22448;51.298;6.430;2023-05-14T05:21:23;17.75;;;15.85;;
35969;SDS011;22448;51.298;6.430;2023-05-14T05:23:50;19.38;;;13.30;;
35969;SDS011;22448;51.298;6.430;2023-05-14T05:26:17;15.45;;;13.18;;
35969;SDS011;22448;51.298;6.430;2023-05-14T05:28:44;15.52;;;11.35;;
35969;SDS011;22448;51.298;6.430;2023-05-14T05:31:11;15.50;;;11.38;;
35969;SDS011;22448;51.298;6.430;2023-05-14T05:33:38;15.70;;;11.57;;
35969;SDS011;22448;51.298;6.430;2023-05-14T05:36:05;16.85;;;10.73;;
35969;SDS011;22448;51.298;6.430;2023-05-14T05:38:32;13.57;;;10.95;;
35969;SDS011;22448;51.298;6.430;2023-05-14T05:40:59;14.98;;;10.55;;
35969;SDS011;22448;51.298;6.430;2023-05-14T05:43:26;18.20;;;12.10;;
35969;SDS011;22448;51.298;6.430;2023-05-14T05:45:56;11.60;;;9.70;;
35969;SDS011;22448;51.298;6.430;2023-05-14T05:48:23;13.32;;;10.55;;
35969;SDS011;22448;51.298;6.430;2023-05-14T05:50:50;16.73;;;10.40;;
35969;SDS011;22448;51.298;6.430;2023-05-14T05:53:17;18.45;;;11.07;;
35969;SDS011;22448;51.298;6.430;2023-05-14T05:55:44;15.45;;;10.65;;
35969;SDS011;22448;51.298;6.430;2023-05-14T05:58:12;17.95;;;11.27;;
35969;SDS011;22448;51.298;6.430;2023-05-14T06:00:41;17.25;;;11.90;;
35969;SDS011;22448;51.298;6.430;2023-05-14T06:03:08;13.43;;;10.23;;
35969;SDS011;22448;51.298;6.430;2023-05-14T06:05:35;12.98;;;10.73;;
35969;SDS011;22448;51.298;6.430;2023-05-14T06:08:02;15.57;;;10.27;;
35969;SDS011;22448;51.298;6.430;2023-05-14T06:10:29;24.73;;;11.23;;
35969;SDS011;22448;51.298;6.430;2023-05-14T06:12:56;15.30;;;11.52;;
35969;SDS011;22448;51.298;6.430;2023-05-14T06:15:23;14.30;;;10.57;;
35969;SDS011;22448;51.298;6.430;2023-05-14T06:17:50;12.38;;;10.25;;
35969;SDS011;22448;51.298;6.430;2023-05-14T06:20:17;18.75;;;10.40;;
35969;SDS011;22448;51.298;6.430;2023-05-14T06:22:44;15.35;;;11.20;;
35969;SDS011;22448;51.298;6.430;2023-05-14T06:25:11;13.80;;;11.13;;
35969;SDS011;22448;51.298;6.430;2023-05-14T06:27:38;20.30;;;11.10;;
35969;SDS011;22448;51.298;6.430;2023-05-14T06:30:05;15.02;;;11.05;;
35969;SDS011;22448;51.298;6.430;2023-05-14T06:32:33;15.57;;;11.40;;
35969;SDS011;22448;51.298;6.430;2023-05-14T06:35:00;22.88;;;12.80;;
35969;SDS011;22448;51.298;6.430;2023-05-14T06:37:30;18.77;;;11.38;;
35969;SDS011;22448;51.298;6.430;2023-05-14T06:39:57;18.27;;;11.75;;
35969;SDS011;22448;51.298;6.430;2023-05-14T06:42:24;19.10;;;11.35;;
35969;SDS011;22448;51.298;6.430;2023-05-14T06:44:51;19.73;;;11.95;;
35969;SDS011;22448;51.298;6.430;2023-05-14T06:47:18;14.30;;;11.50;;
35969;SDS011;22448;51.298;6.430;2023-05-14T06:49:46;16.13;;;11.82;;
35969;SDS011;22448;51.298;6.430;2023-05-14T06:52:13;16.77;;;12.23;;
35969;SDS011;22448;51.298;6.430;2023-05-14T06:54:40;19.00;;;12.82;;
35969;SDS011;22448;51.298;6.430;2023-05-14T06:57:07;13.75;;;12.10;;
35969;SDS011;22448;51.298;6.430;2023-05-14T06:59:33;15.85;;;11.75;;
35969;SDS011;22448;51.298;6.430;2023-05-14T07:02:01;21.98;;;12.50;;
35969;SDS011;22448;51.298;6.430;2023-05-14T07:04:28;18.58;;;13.05;;
35969;SDS011;22448;51.298;6.430;2023-05-14T07:06:55;17.30;;;12.45;;
35969;SDS011;22448;51.298;6.430;2023-05-14T07:09:22;17.33;;;13.27;;
35969;SDS011;22448;51.298;6.430;2023-05-14T07:11:49;18.20;;;12.95;;
35969;SDS011;22448;51.298;6.430;2023-05-14T07:14:16;19.42;;;12.30;;
35969;SDS011;22448;51.298;6.430;2023-05-14T07:16:43;13.90;;;12.10;;
35969;SDS011;22448;51.298;6.430;2023-05-14T07:19:12;19.83;;;13.07;;
35969;SDS011;22448;51.298;6.430;2023-05-14T07:21:39;19.75;;;12.75;;
35969;SDS011;22448;51.298;6.430;2023-05-14T07:24:06;20.80;;;13.30;;
35969;SDS011;22448;51.298;6.430;2023-05-14T07:26:33;17.10;;;12.45;;
35969;SDS011;22448;51.298;6.430;2023-05-14T07:29:01;20.73;;;13.02;;
35969;SDS011;22448;51.298;6.430;2023-05-14T07:31:28;19.45;;;13.20;;
35969;SDS011;22448;51.298;6.430;2023-05-14T07:33:55;18.70;;;12.65;;
35969;SDS011;22448;51.298;6.430;2023-05-14T07:36:23;21.75;;;13.98;;
35969;SDS011;22448;51.298;6.430;2023-05-14T07:38:50;26.95;;;14.65;;
35969;SDS011;22448;51.298;6.430;2023-05-14T07:41:17;18.58;;;13.18;;
35969;SDS011;22448;51.298;6.430;2023-05-14T07:43:44;21.05;;;14.63;;
35969;SDS011;22448;51.298;6.430;2023-05-14T07:46:11;16.40;;;13.38;;
35969;SDS011;22448;51.298;6.430;2023-05-14T07:48:43;22.35;;;13.00;;
35969;SDS011;22448;51.298;6.430;2023-05-14T07:51:10;18.88;;;13.77;;
35969;SDS011;22448;51.298;6.430;2023-05-14T07:53:40;19.05;;;13.48;;
35969;SDS011;22448;51.298;6.430;2023-05-14T07:56:08;19.63;;;12.48;;
35969;SDS011;22448;51.298;6.430;2023-05-14T07:58:35;20.00;;;14.23;;
35969;SDS011;22448;51.298;6.430;2023-05-14T08:01:06;21.17;;;13.82;;
35969;SDS011;22448;51.298;6.430;2023-05-14T08:03:34;23.60;;;13.68;;
35969;SDS011;22448;51.298;6.430;2023-05-14T08:06:01;20.45;;;13.85;;
35969;SDS011;22448;51.298;6.430;2023-05-14T08:08:29;22.65;;;15.10;;
35969;SDS011;22448;51.298;6.430;2023-05-14T08:10:56;16.13;;;13.43;;
35969;SDS011;22448;51.298;6.430;2023-05-14T08:13:23;26.10;;;14.77;;
35969;SDS011;22448;51.298;6.430;2023-05-14T08:15:50;22.95;;;15.27;;
35969;SDS011;22448;51.298;6.430;2023-05-14T08:18:17;24.27;;;15.25;;
35969;SDS011;22448;51.298;6.430;2023-05-14T08:20:44;19.90;;;15.18;;
35969;SDS011;22448;51.298;6.430;2023-05-14T08:23:12;21.60;;;15.18;;
35969;SDS011;22448;51.298;6.430;2023-05-14T08:25:39;20.38;;;15.63;;
35969;SDS011;22448;51.298;6.430;2023-05-14T08:28:06;22.35;;;15.80;;
35969;SDS011;22448;51.298;6.430;2023-05-14T08:30:33;26.35;;;16.17;;
35969;SDS011;22448;51.298;6.430;2023-05-14T08:33:00;24.38;;;16.80;;
35969;SDS011;22448;51.298;6.430;2023-05-14T08:35:27;24.23;;;16.85;;
35969;SDS011;22448;51.298;6.430;2023-05-14T08:37:55;26.30;;;16.75;;
35969;SDS011;22448;51.298;6.430;2023-05-14T08:40:22;22.88;;;16.40;;
35969;SDS011;22448;51.298;6.430;2023-05-14T08:42:50;25.83;;;16.55;;
35969;SDS011;22448;51.298;6.430;2023-05-14T08:45:17;27.50;;;18.58;;
35969;SDS011;22448;51.298;6.430;2023-05-14T08:47:52;26.67;;;17.70;;
35969;SDS011;22448;51.298;6.430;2023-05-14T08:50:22;28.23;;;17.48;;
35969;SDS011;22448;51.298;6.430;2023-05-14T08:52:50;24.52;;;17.23;;
35969;SDS011;22448;51.298;6.430;2023-05-14T08:55:17;26.30;;;17.63;;
35969;SDS011;22448;51.298;6.430;2023-05-14T08:57:45;27.02;;;16.38;;
35969;SDS011;22448;51.298;6.430;2023-05-14T09:00:12;28.75;;;17.95;;
35969;SDS011;22448;51.298;6.430;2023-05-14T09:02:41;27.05;;;18.20;;
35969;SDS011;22448;51.298;6.430;2023-05-14T09:05:11;21.80;;;16.52;;
35969;SDS011;22448;51.298;6.430;2023-05-14T09:07:38;29.92;;;17.73;;
35969;SDS011;22448;51.298;6.430;2023-05-14T09:10:05;31.13;;;17.98;;
35969;SDS011;22448;51.298;6.430;2023-05-14T09:12:34;24.40;;;16.85;;
35969;SDS011;22448;51.298;6.430;2023-05-14T09:15:01;22.40;;;16.50;;
35969;SDS011;22448;51.298;6.430;2023-05-14T09:17:28;27.80;;;18.45;;
35969;SDS011;22448;51.298;6.430;2023-05-14T09:19:56;26.25;;;17.40;;
35969;SDS011;22448;51.298;6.430;2023-05-14T09:22:23;25.30;;;16.15;;
35969;SDS011;22448;51.298;6.430;2023-05-14T09:25:04;29.83;;;18.55;;
35969;SDS011;22448;51.298;6.430;2023-05-14T09:27:34;28.83;;;18.48;;
35969;SDS011;22448;51.298;6.430;2023-05-14T09:30:05;27.70;;;17.92;;
35969;SDS011;22448;51.298;6.430;2023-05-14T09:32:37;27.50;;;17.52;;
35969;SDS011;22448;51.298;6.430;2023-05-14T09:35:18;24.83;;;17.17;;
35969;SDS011;22448;51.298;6.430;2023-05-14T09:37:48;29.77;;;17.60;;
35969;SDS011;22448;51.298;6.430;2023-05-14T09:40:17;27.58;;;17.52;;
35969;SDS011;22448;51.298;6.430;2023-05-14T09:42:45;29.85;;;18.42;;
35969;SDS011;22448;51.298;6.430;2023-05-14T09:45:16;29.45;;;18.05;;
35969;SDS011;22448;51.298;6.430;2023-05-14T09:47:43;26.85;;;16.02;;
35969;SDS011;22448;51.298;6.430;2023-05-14T09:50:11;27.92;;;17.10;;
35969;SDS011;22448;51.298;6.430;2023-05-14T09:52:38;23.42;;;15.90;;
35969;SDS011;22448;51.298;6.430;2023-05-14T09:55:05;28.00;;;16.85;;
35969;SDS011;22448;51.298;6.430;2023-05-14T09:57:33;25.05;;;16.08;;
35969;SDS011;22448;51.298;6.430;2023-05-14T10:00:00;22.98;;;15.48;;
35969;SDS011;22448;51.298;6.430;2023-05-14T10:02:31;24.27;;;15.48;;
35969;SDS011;22448;51.298;6.430;2023-05-14T10:05:06;25.00;;;15.50;;
35969;SDS011;22448;51.298;6.430;2023-05-14T10:07:41;25.38;;;16.10;;
35969;SDS011;22448;51.298;6.430;2023-05-14T10:10:23;25.10;;;15.38;;
35969;SDS011;22448;51.298;6.430;2023-05-14T10:12:57;26.58;;;15.55;;
35969;SDS011;22448;51.298;6.430;2023-05-14T10:15:33;29.52;;;16.00;;
35969;SDS011;22448;51.298;6.430;2023-05-14T10:18:06;23.23;;;16.38;;
35969;SDS011;22448;51.298;6.430;2023-05-14T10:20:39;25.52;;;14.98;;
35969;SDS011;22448;51.298;6.430;2023-05-14T10:23:06;22.63;;;14.10;;
35969;SDS011;22448;51.298;6.430;2023-05-14T10:25:34;25.92;;;14.40;;
35969;SDS011;22448;51.298;6.430;2023-05-14T10:28:03;30.02;;;14.75;;
35969;SDS011;22448;51.298;6.430;2023-05-14T10:30:31;24.20;;;13.52;;
35969;SDS011;22448;51.298;6.430;2023-05-14T10:33:05;20.92;;;12.55;;
35969;SDS011;22448;51.298;6.430;2023-05-14T10:38:20;21.48;;;12.80;;
35969;SDS011;22448;51.298;6.430;2023-05-14T10:40:48;26.55;;;11.68;;
35969;SDS011;22448;51.298;6.430;2023-05-14T10:43:19;18.27;;;11.05;;
35969;SDS011;22448;51.298;6.430;2023-05-14T10:45:47;19.13;;;11.18;;
35969;SDS011;22448;51.298;6.430;2023-05-14T10:48:14;21.52;;;10.82;;
35969;SDS011;22448;51.298;6.430;2023-05-14T10:50:41;16.50;;;10.05;;
35969;SDS011;22448;51.298;6.430;2023-05-14T10:53:12;20.30;;;9.77;;
35969;SDS011;22448;51.298;6.430;2023-05-14T10:55:40;21.42;;;10.80;;
35969;SDS011;22448;51.298;6.430;2023-05-14T10:58:11;18.77;;;9.45;;
35969;SDS011;22448;51.298;6.430;2023-05-14T11:00:39;17.48;;;9.20;;
35969;SDS011;22448;51.298;6.430;2023-05-14T11:03:06;19.88;;;9.55;;
35969;SDS011;22448;51.298;6.430;2023-05-14T11:05:33;15.20;;;8.93;;
35969;SDS011;22448;51.298;6.430;2023-05-14T11:08:03;15.05;;;9.40;;
35969;SDS011;22448;51.298;6.430;2023-05-14T11:10:33;14.40;;;7.85;;
35969;SDS011;22448;51.298;6.430;2023-05-14T11:13:01;14.40;;;8.52;;
35969;SDS011;22448;51.298;6.430;2023-05-14T11:15:28;18.50;;;9.57;;
35969;SDS011;22448;51.298;6.430;2023-05-14T11:17:55;18.73;;;8.80;;
35969;SDS011;22448;51.298;6.430;2023-05-14T11:20:22;16.50;;;8.73;;
35969;SDS011;22448;51.298;6.430;2023-05-14T11:22:49;19.00;;;8.48;;
35969;SDS011;22448;51.298;6.430;2023-05-14T11:25:19;13.32;;;7.70;;
35969;SDS011;22448;51.298;6.430;2023-05-14T11:27:48;17.45;;;8.85;;
35969;SDS011;22448;51.298;6.430;2023-05-14T11:30:16;15.13;;;7.95;;
35969;SDS011;22448;51.298;6.430;2023-05-14T11:32:44;14.63;;;7.72;;
35969;SDS011;22448;51.298;6.430;2023-05-14T11:35:14;16.83;;;7.82;;
35969;SDS011;22448;51.298;6.430;2023-05-14T11:37:42;12.55;;;6.15;;
35969;SDS011;22448;51.298;6.430;2023-05-14T11:40:15;10.65;;;4.28;;
35969;SDS011;22448;51.298;6.430;2023-05-14T11:42:42;8.80;;;3.58;;
35969;SDS011;22448;51.298;6.430;2023-05-14T11:45:10;6.53;;;3.50;;
35969;SDS011;22448;51.298;6.430;2023-05-14T11:47:39;12.55;;;4.55;;
35969;SDS011;22448;51.298;6.430;2023-05-14T11:50:07;14.80;;;5.28;;
35969;SDS011;22448;51.298;6.430;2023-05-14T11:52:39;13.90;;;4.03;;
35969;SDS011;22448;51.298;6.430;2023-05-14T11:55:10;9.07;;;4.22;;
35969;SDS011;22448;51.298;6.430;2023-05-14T11:57:38;8.40;;;5.18;;
35969;SDS011;22448;51.298;6.430;2023-05-14T12:00:09;8.55;;;4.30;;
35969;SDS011;22448;51.298;6.430;2023-05-14T12:02:42;11.63;;;4.50;;
35969;SDS011;22448;51.298;6.430;2023-05-14T12:05:11;13.07;;;4.30;;
35969;SDS011;22448;51.298;6.430;2023-05-14T12:07:39;6.90;;;5.03;;
35969;SDS011;22448;51.298;6.430;2023-05-14T12:10:07;8.55;;;3.88;;
35969;SDS011;22448;51.298;6.430;2023-05-14T12:12:37;9.55;;;3.97;;
35969;SDS011;22448;51.298;6.430;2023-05-14T12:15:11;10.10;;;4.22;;
35969;SDS011;22448;51.298;6.430;2023-05-14T12:17:42;8.93;;;3.45;;
35969;SDS011;22448;51.298;6.430;2023-05-14T12:20:16;3.72;;;3.25;;
35969;SDS011;22448;51.298;6.430;2023-05-14T12:22:43;7.95;;;3.63;;
35969;SDS011;22448;51.298;6.430;2023-05-14T12:25:11;9.30;;;3.28;;
35969;SDS011;22448;51.298;6.430;2023-05-14T12:27:43;8.68;;;2.90;;
35969;SDS011;22448;51.298;6.430;2023-05-14T12:30:11;6.53;;;3.85;;
35969;SDS011;22448;51.298;6.430;2023-05-14T12:32:47;8.65;;;3.28;;
35969;SDS011;22448;51.298;6.430;2023-05-14T12:35:17;8.20;;;3.10;;
35969;SDS011;22448;51.298;6.430;2023-05-14T12:37:44;9.27;;;3.10;;
35969;SDS011;22448;51.298;6.430;2023-05-14T12:40:11;15.65;;;3.47;;
35969;SDS011;22448;51.298;6.430;2023-05-14T12:42:39;10.20;;;3.60;;
35969;SDS011;22448;51.298;6.430;2023-05-14T12:45:06;8.95;;;3.78;;
35969;SDS011;22448;51.298;6.430;2023-05-14T12:47:34;4.15;;;3.10;;
35969;SDS011;22448;51.298;6.430;2023-05-14T12:50:03;6.25;;;4.00;;
35969;SDS011;22448;51.298;6.430;2023-05-14T12:52:31;8.43;;;3.38;;
35969;SDS011;22448;51.298;6.430;2023-05-14T12:55:04;4.82;;;2.83;;
35969;SDS011;22448;51.298;6.430;2023-05-14T12:57:32;9.07;;;2.65;;
35969;SDS011;22448;51.298;6.430;2023-05-14T13:00:01;9.00;;;3.72;;
35969;SDS011;22448;51.298;6.430;2023-05-14T13:02:31;6.07;;;3.03;;
35969;SDS011;22448;51.298;6.430;2023-05-14T13:05:09;9.20;;;3.53;;
35969;SDS011;22448;51.298;6.430;2023-05-14T13:07:37;10.82;;;3.38;;
35969;SDS011;22448;51.298;6.430;2023-05-14T13:10:04;6.45;;;3.30;;
35969;SDS011;22448;51.298;6.430;2023-05-14T13:12:32;5.88;;;3.28;;
35969;SDS011;22448;51.298;6.430;2023-05-14T13:14:59;7.97;;;3.40;;
35969;SDS011;22448;51.298;6.430;2023-05-14T13:17:26;18.17;;;3.72;;
35969;SDS011;22448;51.298;6.430;2023-05-14T13:19:53;6.05;;;3.17;;
35969;SDS011;22448;51.298;6.430;2023-05-14T13:22:20;4.68;;;2.78;;
35969;SDS011;22448;51.298;6.430;2023-05-14T13:24:47;6.07;;;2.63;;
35969;SDS011;22448;51.298;6.430;2023-05-14T13:27:14;11.13;;;2.90;;
35969;SDS011;22448;51.298;6.430;2023-05-14T13:29:41;7.53;;;2.38;;
35969;SDS011;22448;51.298;6.430;2023-05-14T13:32:08;5.95;;;2.45;;
35969;SDS011;22448;51.298;6.430;2023-05-14T13:34:35;8.43;;;2.80;;
35969;SDS011;22448;51.298;6.430;2023-05-14T13:37:02;7.63;;;2.80;;
35969;SDS011;22448;51.298;6.430;2023-05-14T13:39:30;5.13;;;3.05;;
35969;SDS011;22448;51.298;6.430;2023-05-14T13:41:57;6.47;;;3.00;;
35969;SDS011;22448;51.298;6.430;2023-05-14T13:44:24;7.22;;;2.40;;
35969;SDS011;22448;51.298;6.430;2023-05-14T13:46:51;13.02;;;2.80;;
35969;SDS011;22448;51.298;6.430;2023-05-14T13:49:18;6.18;;;2.50;;
35969;SDS011;22448;51.298;6.430;2023-05-14T13:51:45;4.68;;;2.53;;
35969;SDS011;22448;51.298;6.430;2023-05-14T13:54:12;14.57;;;2.90;;
35969;SDS011;22448;51.298;6.430;2023-05-14T13:56:39;7.25;;;3.08;;
35969;SDS011;22448;51.298;6.430;2023-05-14T13:59:06;7.60;;;3.08;;
35969;SDS011;22448;51.298;6.430;2023-05-14T14:01:33;6.35;;;3.20;;
35969;SDS011;22448;51.298;6.430;2023-05-14T14:04:00;7.47;;;2.78;;
35969;SDS011;22448;51.298;6.430;2023-05-14T14:06:29;4.82;;;2.47;;
35969;SDS011;22448;51.298;6.430;2023-05-14T14:08:57;5.85;;;3.00;;
35969;SDS011;22448;51.298;6.430;2023-05-14T14:11:25;6.85;;;2.53;;
35969;SDS011;22448;51.298;6.430;2023-05-14T14:13:52;5.47;;;2.78;;
35969;SDS011;22448;51.298;6.430;2023-05-14T14:16:19;8.88;;;2.60;;
35969;SDS011;22448;51.298;6.430;2023-05-14T14:18:46;9.15;;;3.03;;
35969;SDS011;22448;51.298;6.430;2023-05-14T14:21:13;9.75;;;2.97;;
35969;SDS011;22448;51.298;6.430;2023-05-14T14:23:47;6.53;;;3.08;;
35969;SDS011;22448;51.298;6.430;2023-05-14T14:26:14;6.35;;;2.83;;
35969;SDS011;22448;51.298;6.430;2023-05-14T14:28:41;6.22;;;3.25;;
35969;SDS011;22448;51.298;6.430;2023-05-14T14:31:08;7.72;;;3.33;;
35969;SDS011;22448;51.298;6.430;2023-05-14T14:33:36;9.68;;;3.08;;
35969;SDS011;22448;51.298;6.430;2023-05-14T14:36:03;7.78;;;3.30;;
35969;SDS011;22448;51.298;6.430;2023-05-14T14:38:31;10.23;;;3.58;;